Terminal Aerodrome Forecast
Issued by NWS Detroit/Pontiac, MI

Home | Current Version | Previous Version | Text Only | Print | Product List | Glossary On
Versions: 1 2 3 4 5 6 7 8 9 10 11 12 13 14 15 16 17 18 19 20 21 22 23 24 25 26 27 28 29
000
FTUS43 KDTX 061126
TAFDTW
TAF
KDTW 061126Z 0612/0718 35005KT P6SM SKC
     FM061600 32006KT P6SM SCT060
     FM062200 16006KT P6SM SCT250
     FM070600 VRB04KT P6SM SCT150
     FM071100 24007KT P6SM SCT050 BKN100
     FM071400 25010KT 5SM SHRA SCT020 OVC040 PROB30 0714/0718 2SM
      TSRA OVC020CB=

USA.gov is the U.S. government's official web portal to all federal, state and local government web resources and services.